Latest Weather Observations for Wye River

IDV60801

Issued at 4:32 pm EDT Thursday 23 November 2017 (issued every 30 minutes, with the page automatically refreshed every 10 minutes)

About weather observations | Map of weather stations | Latest weather observations for VIC | Other Formats
Station Details ID: 250044 Name: VICTORIAN PORTABLE M Lat: -38.63 Lon: 143.89 Height: 90.0 m
Data from the previous 72 hours. | See also: Recent months for locations in Victoria
Date/Time
EDT
Temp
°C
App
Temp
°C
Dew
Point
°C
Rel
Hum
%
Delta-T
°C
Wind Press
QNH
hPa
Press
MSL
hPa
Rain since
9am
mm
Dir  Spd
km/h
Gust
km/h
Spd
kts
Gust
kts
23/04:30pm 22.0 23.8 17.5 75 2.8 E 4 4 2 2 - - 0.0
23/04:20pm 22.7 24.4 17.1 70 3.5 NE 4 4 2 2 - - 0.0
23/04:10pm 22.7 24.3 16.9 70 3.6 NE 4 7 2 4 - - 0.0
23/04:00pm 21.9 23.4 16.6 72 3.2 NNE 4 6 2 3 - - 0.0
23/03:50pm 20.7 22.2 16.7 78 2.4 ENE 4 6 2 3 - - 0.0
23/03:40pm 20.7 21.8 16.6 77 2.5 NE 6 6 3 3 - - 0.0
23/03:30pm 20.4 22.0 17.0 81 2.1 NE 4 6 2 3 - - 0.0
23/03:20pm 21.8 23.6 17.5 76 2.7 NNE 4 6 2 3 - - 0.0
23/03:10pm 23.6 25.1 17.5 68 3.8 ENE 6 7 3 4 - - 0.0
23/03:00pm 23.9 25.6 17.1 65 4.2 NE 4 7 2 4 - - 0.0
23/02:50pm 22.9 24.5 16.9 69 3.7 ENE 4 7 2 4 - - 0.0
23/02:40pm 22.8 24.4 17.0 70 3.6 ESE 4 6 2 3 - - 0.0
23/02:30pm 22.9 24.7 17.4 71 3.4 E 4 6 2 3 - - 0.0
23/02:20pm 23.6 25.0 17.3 67 3.9 ENE 6 6 3 3 - - 0.0
23/02:10pm 23.6 24.9 17.0 66 4.1 NE 6 7 3 4 - - 0.0
23/02:00pm 24.3 26.0 17.1 64 4.5 NNE 4 7 2 4 - - 0.0
23/01:50pm 24.1 25.4 17.1 65 4.3 NNE 6 9 3 5 - - 0.0
23/01:40pm 24.6 25.8 16.9 62 4.8 NE 6 7 3 4 - - 0.0
23/01:30pm 24.9 26.4 16.7 60 5.1 N 4 6 2 3 - - 0.0
23/01:20pm 24.1 25.6 17.6 67 4.1 NNE 6 6 3 3 - - 0.0
23/01:10pm 24.0 25.6 16.8 64 4.4 NE 4 6 2 3 - - 0.0
23/01:00pm 23.2 24.2 16.8 67 3.9 NE 7 7 4 4 - - 0.0
23/12:50pm 24.1 25.3 16.9 64 4.5 NNE 6 7 3 4 - - 0.0
23/12:40pm 24.2 25.2 16.4 61 4.8 NE 6 7 3 4 - - 0.0
23/12:30pm 24.0 25.5 16.7 63 4.5 NE 4 6 2 3 - - 0.0
23/12:20pm 23.4 24.7 17.2 68 3.8 ENE 6 7 3 4 - - 0.0
23/12:10pm 23.6 25.0 16.4 64 4.4 ENE 4 6 2 3 - - 0.0
23/12:00pm 22.8 23.7 16.2 66 4.0 E 6 6 3 3 - - 0.0
23/11:50am 22.0 23.0 16.4 70 3.4 ENE 6 7 3 4 - - 0.0
23/11:40am 22.1 22.9 16.4 70 3.5 NE 7 9 4 5 - - 0.0
23/11:30am 23.0 24.1 16.6 67 3.9 NE 6 7 3 4 - - 0.0
23/11:20am 22.5 23.8 16.2 67 3.8 NE 4 6 2 3 - - 0.0
23/11:10am 21.8 22.9 16.5 72 3.2 NNE 6 7 3 4 - - 0.0
23/11:00am 21.6 22.3 16.1 71 3.3 NNE 7 9 4 5 - - 0.0
23/10:50am 21.8 22.6 15.9 69 3.6 NNE 6 9 3 5 - - 0.0
23/10:40am 21.8 23.1 16.1 70 3.4 NNE 4 6 2 3 - - 0.0
23/10:30am 21.7 22.3 15.4 67 3.8 NNE 6 7 3 4 - - 0.0
23/10:20am 21.3 22.2 16.1 72 3.1 NNE 6 9 3 5 - - 0.0
23/10:10am 21.4 22.5 16.5 73 3.0 NNE 6 9 3 5 - - 0.0
23/10:00am 21.5 22.7 16.0 71 3.3 NNE 4 4 2 2 - - 0.0
23/09:50am 20.5 21.6 15.6 73 2.9 NNE 4 7 2 4 - - 0.0
23/09:40am 20.3 20.8 15.1 72 3.1 NNE 6 7 3 4 - - 0.0
23/09:30am 20.1 20.7 15.2 73 2.9 NE 6 7 3 4 - - 0.0
23/09:20am 19.6 20.1 15.0 75 2.7 NNE 6 9 3 5 - - 0.0
23/09:10am 18.6 18.8 14.7 78 2.3 NNE 7 9 4 5 - - 0.0
23/09:00am 18.4 18.8 14.8 79 2.1 NE 6 7 3 4 - - 0.0
23/08:50am 18.3 18.9 15.3 83 1.8 NNE 6 7 3 4 - - 0.0
23/08:40am 18.0 18.9 15.1 83 1.7 NNE 4 4 2 2 - - 0.0
23/08:30am 17.6 18.4 14.7 83 1.7 NE 4 6 2 3 - - 0.0
23/08:20am 17.3 18.0 14.4 83 1.7 NNE 4 7 2 4 - - 0.0
23/08:10am 16.9 17.6 14.5 86 1.4 NNE 4 6 2 3 - - 0.0
23/08:00am 16.6 17.7 14.6 88 1.2 NNE 2 6 1 3 - - 0.0
23/07:50am 16.3 16.9 14.3 88 1.1 N 4 6 2 3 - - 0.0
23/07:40am 16.0 16.9 14.0 88 1.1 N 2 4 1 2 - - 0.0
23/07:30am 15.8 16.2 13.7 87 1.2 N 4 6 2 3 - - 0.0
23/07:20am 15.6 15.9 13.4 87 1.2 N 4 6 2 3 - - 0.0
23/07:10am 15.6 16.4 13.7 88 1.1 NW 2 4 1 2 - - 0.0
23/07:00am 15.3 15.5 12.9 85 1.3 NW 4 4 2 2 - - 0.0
23/06:50am 15.2 15.4 13.2 88 1.1 NNW 4 4 2 2 - - 0.0
23/06:40am 15.2 15.4 13.0 87 1.2 NNW 4 6 2 3 - - 0.0
23/06:30am 15.1 15.3 13.1 88 1.1 NNW 4 7 2 4 - - 0.0
23/06:20am 15.0 15.1 12.6 85 1.3 NNW 4 6 2 3 - - 0.0
23/06:10am 15.1 15.2 12.6 85 1.4 NNW 4 4 2 2 - - 0.0
23/06:00am 15.2 15.4 12.9 86 1.3 NNW 4 6 2 3 - - 0.0
23/05:50am 15.3 15.5 13.0 86 1.3 NW 4 6 2 3 - - 0.0
23/05:40am 15.5 15.8 13.5 88 1.1 NNW 4 6 2 3 - - 0.0
23/05:30am 15.6 16.0 13.6 88 1.1 NW 4 6 2 3 - - 0.0
23/05:20am 15.7 16.1 13.8 88 1.1 NNW 4 6 2 3 - - 0.0
23/05:10am 15.6 16.0 13.6 88 1.1 NNW 4 6 2 3 - - 0.0
23/05:00am 15.6 16.0 13.6 88 1.1 N 4 6 2 3 - - 0.0
23/04:50am 15.7 16.1 13.7 88 1.1 NNE 4 7 2 4 - - 0.0
23/04:40am 15.6 16.0 13.6 88 1.1 N 4 7 2 4 - - 0.0
23/04:30am 15.7 16.1 13.6 87 1.2 N 4 4 2 2 - - 0.0
23/04:20am 15.7 16.1 13.6 87 1.2 NNW 4 6 2 3 - - 0.0
23/04:10am 15.8 16.2 13.6 87 1.2 NNE 4 4 2 2 - - 0.0
23/04:00am 15.8 16.2 13.8 88 1.1 NE 4 7 2 4 - - 0.0
23/03:50am 15.6 16.3 13.4 87 1.2 NNE 2 6 1 3 - - 0.0
23/03:40am 15.7 16.3 13.1 84 1.5 N 2 4 1 2 - - 0.0
23/03:30am 15.6 16.2 13.1 85 1.4 N 2 4 1 2 - - 0.0
23/03:20am 15.6 16.0 12.6 82 1.7 NNW 2 4 1 2 - - 0.0
23/03:10am 15.9 16.6 13.4 85 1.4 NNW 2 4 1 2 - - 0.0
23/03:00am 15.9 17.0 13.5 86 1.4 CALM 0 2 0 1 - - 0.0
23/02:50am 15.7 16.2 12.8 83 1.6 NW 2 4 1 2 - - 0.0
23/02:40am 15.7 16.2 12.8 83 1.6 NW 2 4 1 2 - - 0.0
23/02:30am 15.6 15.9 12.3 81 1.8 NW 2 4 1 2 - - 0.0
23/02:20am 15.5 16.3 12.4 82 1.7 CALM 0 2 0 1 - - 0.0
23/02:10am 15.1 14.8 11.4 78 2.0 NNW 4 6 2 3 - - 0.0
23/02:00am 14.9 14.5 11.2 78 2.0 NNW 4 6 2 3 - - 0.0
23/01:50am 14.8 14.6 11.7 82 1.7 NNW 4 4 2 2 - - 0.0
23/01:40am 14.7 14.4 11.4 80 1.8 NNW 4 4 2 2 - - 0.0
23/01:30am 14.8 14.3 10.9 77 2.1 NNW 4 4 2 2 - - 0.0
23/01:20am 14.9 14.3 10.3 74 2.4 NNW 4 6 2 3 - - 0.0
23/01:10am 15.1 14.3 9.6 69 2.9 NNW 4 6 2 3 - - 0.0
23/01:00am 15.2 14.4 9.6 69 2.9 NNW 4 6 2 3 - - 0.0
23/12:50am 15.2 14.4 9.8 70 2.8 NNW 4 6 2 3 - - 0.0
23/12:40am 15.0 14.2 9.5 69 2.8 N 4 4 2 2 - - 0.0
23/12:30am 15.0 14.1 9.3 68 2.9 NNW 4 6 2 3 - - 0.0
23/12:20am 14.9 14.1 9.8 71 2.7 NNW 4 6 2 3 - - 0.0
23/12:10am 15.1 14.3 9.7 70 2.8 NNW 4 6 2 3 - - 0.0
23/12:00am 15.3 14.5 9.7 69 2.9 NNW 4 6 2 3 - - 0.0
 
Date/Time
EDT
Temp
°C
App
Temp
°C
Dew
Point
°C
Rel
Hum
%
Delta-T
°C
Wind Press
QNH
hPa
Press
MSL
hPa
Rain since
9am
mm
Dir  Spd
km/h
Gust
km/h
Spd
kts
Gust
kts
22/11:50pm 15.6 14.8 9.8 68 3.0 NNW 4 4 2 2 - - 0.0
22/11:40pm 15.6 14.8 9.6 67 3.1 N 4 6 2 3 - - 0.0
22/11:30pm 15.5 14.4 10.1 70 2.8 NNW 6 6 3 3 - - 0.0
22/11:20pm 15.8 15.2 10.5 71 2.8 NNW 4 6 2 3 - - 0.0
22/11:10pm 16.1 15.0 10.1 67 3.2 NNW 6 7 3 4 - - 0.0
22/11:00pm 16.1 14.9 9.6 65 3.4 NNW 6 9 3 5 - - 0.0
22/10:50pm 15.8 14.8 10.3 70 2.9 NNW 6 7 3 4 - - 0.0
22/10:40pm 16.1 15.2 10.8 71 2.8 NNW 6 7 3 4 - - 0.0
22/10:30pm 16.1 15.2 10.5 69 3.0 NNW 6 6 3 3 - - 0.0
22/10:20pm 16.3 15.5 10.9 70 2.9 NNW 6 7 3 4 - - 0.0
22/10:10pm 16.3 15.5 10.9 70 2.9 NNW 6 7 3 4 - - 0.0
22/10:00pm 16.3 15.5 10.9 70 2.9 NNW 6 7 3 4 - - 0.0
22/09:50pm 16.3 15.5 11.2 72 2.8 NNW 6 6 3 3 - - 0.0
22/09:40pm 16.6 16.4 11.7 73 2.7 NNW 4 6 2 3 - - 0.0
22/09:30pm 16.6 16.3 11.4 71 2.8 NNW 4 6 2 3 - - 0.0
22/09:20pm 16.9 16.7 11.7 71 2.8 N 4 6 2 3 - - 0.0
22/09:10pm 17.0 16.7 11.5 70 3.0 NNW 4 4 2 2 - - 0.0
22/09:00pm 17.3 17.2 12.2 72 2.8 NNW 4 4 2 2 - - 0.0
22/08:50pm 17.7 17.9 11.9 69 3.2 - 2 4 1 2 - - 0.0
22/08:40pm 18.2 18.4 13.1 72 2.9 NNE 4 4 2 2 - - 0.0
22/08:30pm 18.6 18.9 13.4 72 3.0 NNE 4 6 2 3 - - 0.0
22/08:20pm 19.1 19.9 13.6 70 3.1 NNE 2 4 1 2 - - 0.0
22/08:10pm 19.6 20.0 13.7 68 3.4 NE 4 6 2 3 - - 0.0
22/08:00pm 20.1 20.4 13.4 65 3.8 NE 4 7 2 4 - - 0.0
22/07:50pm 20.7 20.7 12.4 59 4.7 NE 4 6 2 3 - - 0.0
22/07:40pm 21.6 21.5 12.1 54 5.4 NE 4 6 2 3 - - 0.0
22/07:30pm 21.9 21.1 10.9 49 6.1 NNE 6 7 3 4 - - 0.0
22/07:20pm 22.1 21.2 10.7 48 6.3 NNE 6 7 3 4 - - 0.0
22/07:10pm 22.3 21.8 11.9 51 5.9 NNE 6 9 3 5 - - 0.0
22/07:00pm 22.2 21.1 10.6 47 6.4 NNE 7 11 4 6 - - 0.0
22/06:50pm 22.4 21.6 11.8 51 6.0 NNE 7 9 4 5 - - 0.0
22/06:40pm 22.2 21.6 12.4 53 5.6 NNE 7 13 4 7 - - 0.0
22/06:30pm 22.4 23.3 15.0 63 4.4 NNE 4 6 2 3 - - 0.0
22/06:20pm 22.2 23.6 16.4 69 3.5 NE 4 6 2 3 - - 0.0
22/06:10pm 22.2 23.7 16.7 71 3.4 NE 4 6 2 3 - - 0.0
22/06:00pm 22.0 22.9 16.2 69 3.5 NE 6 7 3 4 - - 0.0
22/05:50pm 22.0 22.9 16.1 69 3.6 NE 6 7 3 4 - - 0.0
22/05:40pm 22.0 22.6 15.7 67 3.8 NNE 7 7 4 4 - - 0.0
22/05:30pm 22.2 22.9 16.2 69 3.6 NNE 7 9 4 5 - - 0.0
22/05:20pm 23.3 23.9 15.7 62 4.6 NE 7 9 4 5 - - 0.0
22/05:10pm 24.2 25.1 16.0 60 5.0 NNE 6 7 3 4 - - 0.0
22/05:00pm 24.4 24.3 14.0 52 6.1 NE 7 7 4 4 - - 0.0
22/04:50pm 24.3 24.4 14.5 54 5.8 NE 7 9 4 5 - - 0.0
22/04:40pm 24.6 24.9 15.1 55 5.7 NNE 7 9 4 5 - - 0.0
22/04:30pm 24.5 25.0 15.6 57 5.4 NNE 7 9 4 5 - - 0.0
22/04:20pm 24.6 24.7 14.5 53 6.0 NNE 7 11 4 6 - - 0.0
22/04:10pm 24.6 25.1 15.6 57 5.5 NNE 7 9 4 5 - - 0.0
22/04:00pm 24.4 24.8 15.4 57 5.4 NNE 7 9 4 5 - - 0.0
22/03:50pm 24.7 25.3 15.7 57 5.5 NNE 7 11 4 6 - - 0.0
22/03:40pm 25.1 25.5 15.2 54 6.0 NNE 7 9 4 5 - - 0.0
22/03:30pm 25.6 25.5 14.0 48 6.9 NNE 7 9 4 5 - - 0.0
22/03:20pm 26.1 26.4 14.9 50 6.8 NNE 7 11 4 6 - - 0.0
22/03:10pm 25.8 25.9 14.4 49 6.8 NNE 7 9 4 5 - - 0.0
22/03:00pm 25.6 25.5 13.9 48 6.9 NNE 7 9 4 5 - - 0.0
22/02:50pm 25.3 25.5 14.8 52 6.3 NNE 7 9 4 5 - - 0.0
22/02:40pm 24.8 25.2 15.3 55 5.7 NNE 7 11 4 6 - - 0.0
22/02:30pm 24.4 24.4 14.2 53 6.0 NNE 7 11 4 6 - - 0.0
22/02:20pm 24.0 24.7 16.0 61 4.9 NNE 7 11 4 6 - - 0.0
22/02:10pm 23.9 24.9 16.3 62 4.7 NNE 6 7 3 4 - - 0.0
22/02:00pm 23.6 24.3 16.1 62 4.6 NNE 7 9 4 5 - - 0.0
22/01:50pm 23.1 23.1 15.1 60 4.8 NNE 9 13 5 7 - - 0.0
22/01:40pm 23.9 25.0 17.0 65 4.3 NNE 7 9 4 5 - - 0.0
22/01:30pm 24.5 25.5 16.9 62 4.7 NNE 7 11 4 6 - - 0.0
22/01:20pm 24.3 24.7 16.4 61 4.8 NNE 9 9 5 5 - - 0.0
22/01:10pm 24.1 24.5 16.2 61 4.8 NE 9 11 5 6 - - 0.0
22/01:00pm 24.4 25.0 16.9 63 4.6 NNE 9 11 5 6 - - 0.0
22/12:50pm 23.9 23.7 15.6 59 5.0 NNE 11 15 6 8 - - 0.0
22/12:40pm 23.6 23.5 15.9 62 4.7 NE 11 13 6 7 - - 0.0
22/12:30pm 23.0 23.2 15.8 64 4.4 NNE 9 13 5 7 - - 0.0
22/12:20pm 24.1 24.3 16.7 63 4.6 NNE 11 13 6 7 - - 0.0
22/12:10pm 24.4 25.0 16.7 62 4.8 NNE 9 11 5 6 - - 0.0
22/12:00pm 24.0 24.7 16.2 61 4.8 NNE 7 9 4 5 - - 0.0
22/11:50am 23.2 24.4 17.4 70 3.6 NNE 7 9 4 5 - - 0.0
22/11:40am 24.5 26.3 18.3 68 3.9 NNE 6 7 3 4 - - 0.0
22/11:30am 24.6 26.4 18.3 68 4.0 NE 6 7 3 4 - - 0.0
22/11:20am 24.6 26.1 17.7 65 4.3 NE 6 7 3 4 - - 0.0
22/11:10am 24.4 26.0 18.2 68 3.9 NE 7 9 4 5 - - 0.0
22/11:00am 24.9 26.4 18.0 65 4.4 NE 7 9 4 5 - - 0.0
22/10:50am 25.0 26.8 17.3 62 4.8 SE 4 6 2 3 - - 0.0
22/10:40am 25.1 27.2 17.3 62 4.9 ESE 2 6 1 3 - - 0.0
22/10:30am 26.0 27.8 17.3 58 5.4 ENE 4 7 2 4 - - 0.0
22/10:20am 26.0 27.9 17.6 60 5.3 ESE 4 7 2 4 - - 0.0
22/10:10am 25.6 27.4 17.4 60 5.1 WNW 4 6 2 3 - - 0.0
22/10:00am 24.5 26.4 17.6 65 4.3 NNW 4 6 2 3 - - 0.0
22/09:50am 23.8 25.3 17.6 68 3.9 SSW 6 6 3 3 - - 0.0
22/09:40am 24.2 25.7 17.6 66 4.1 SSW 6 7 3 4 - - 0.0
22/09:30am 25.3 26.6 17.1 60 5.1 E 6 9 3 5 - - 0.0
22/09:20am 27.8 28.9 15.6 47 7.5 ESE 4 6 2 3 - - 0.0
22/09:10am 27.9 28.5 15.3 46 7.7 N 6 7 3 4 - - 0.0
22/09:00am 27.3 26.9 12.5 40 8.6 N 6 9 3 5 - - 0.0
22/08:50am 26.6 24.9 7.4 29 10.2 NNE 6 9 3 5 - - 0.0
22/08:40am 25.9 23.7 6.2 28 10.3 NNE 7 9 4 5 - - 0.0
22/08:30am 24.9 22.7 5.2 28 10.0 N 6 11 3 6 - - 0.0
22/08:20am 24.3 24.6 13.4 50 6.4 N 4 7 2 4 - - 0.0
22/08:10am 24.4 24.8 13.8 51 6.2 N 4 6 2 3 - - 0.0
22/08:00am 24.2 23.6 11.7 45 7.1 N 6 6 3 3 - - 0.0
22/07:50am 23.6 23.4 11.9 47 6.6 N 4 6 2 3 - - 0.0
22/07:40am 22.9 21.6 9.2 41 7.4 NNW 6 6 3 3 - - 0.0
22/07:30am 22.4 20.8 8.6 41 7.3 NNW 7 9 4 5 - - 0.0
22/07:20am 21.9 20.5 9.5 45 6.7 NNW 7 7 4 4 - - 0.0
22/07:10am 21.1 19.8 10.1 49 6.0 NNW 7 9 4 5 - - 0.0
22/07:00am 20.4 19.1 9.8 50 5.7 NNW 7 7 4 4 - - 0.0
22/06:50am 19.5 18.3 10.2 55 5.0 NNW 7 7 4 4 - - 0.0
22/06:40am 18.9 17.8 9.8 55 4.9 NNW 6 6 3 3 - - 0.0
22/06:30am 18.5 17.8 9.9 57 4.6 NW 4 4 2 2 - - 0.0
22/06:20am 18.2 17.3 9.4 56 4.6 NNW 4 6 2 3 - - 0.0
22/06:10am 18.1 17.0 9.8 58 4.4 NNW 6 7 3 4 - - 0.0
22/06:00am 18.1 17.1 10.2 60 4.2 NNW 6 7 3 4 - - 0.0
22/05:50am 18.1 17.1 10.3 60 4.2 NNW 6 7 3 4 - - 0.0
22/05:40am 18.1 17.1 10.2 60 4.2 NNW 6 7 3 4 - - 0.0
22/05:30am 18.2 17.4 11.0 63 3.9 NNW 6 7 3 4 - - 0.0
22/05:20am 18.4 17.5 10.8 61 4.1 NNW 6 7 3 4 - - 0.0
22/05:10am 18.3 17.4 10.8 61 4.1 NNW 6 7 3 4 - - 0.0
22/05:00am 18.2 17.5 11.3 64 3.8 N 6 7 3 4 - - 0.0
22/04:50am 18.2 17.6 11.7 66 3.6 N 6 9 3 5 - - 0.0
22/04:40am 18.1 17.6 12.2 68 3.3 N 6 7 3 4 - - 0.0
22/04:30am 18.3 17.8 12.1 67 3.4 N 6 7 3 4 - - 0.0
22/04:20am 18.3 17.9 12.5 69 3.2 NNW 6 6 3 3 - - 0.0
22/04:10am 18.5 18.5 12.4 67 3.4 NNW 4 4 2 2 - - 0.0
22/04:00am 18.5 18.6 12.6 68 3.3 N 4 6 2 3 - - 0.0
22/03:50am 18.8 18.9 12.8 68 3.4 N 4 6 2 3 - - 0.0
22/03:40am 19.2 19.4 12.9 67 3.6 N 4 4 2 2 - - 0.0
22/03:30am 19.6 19.2 12.4 63 4.0 N 6 9 3 5 - - 0.0
22/03:20am 19.4 19.1 12.8 65 3.7 N 6 9 3 5 - - 0.0
22/03:10am 19.6 19.4 13.0 65 3.7 N 6 7 3 4 - - 0.0
22/03:00am 19.6 19.1 12.0 61 4.2 N 6 7 3 4 - - 0.0
22/02:50am 19.2 18.7 12.7 66 3.7 N 7 7 4 4 - - 0.0
22/02:40am 19.3 18.9 12.5 64 3.8 N 6 6 3 3 - - 0.0
22/02:30am 19.3 19.0 12.6 65 3.8 N 6 6 3 3 - - 0.0
22/02:20am 19.5 19.1 12.3 63 4.0 N 6 7 3 4 - - 0.0
22/02:10am 19.7 19.4 12.6 63 4.0 N 6 6 3 3 - - 0.0
22/02:00am 20.2 19.9 12.6 61 4.3 NNW 6 6 3 3 - - 0.0
22/01:50am 20.7 19.9 11.8 56 5.0 N 7 9 4 5 - - 0.0
22/01:40am 20.3 19.4 11.5 57 4.9 N 7 7 4 4 - - 0.0
22/01:30am 19.7 18.8 11.2 58 4.7 N 7 9 4 5 - - 0.0
22/01:20am 19.2 18.6 11.7 62 4.2 NNW 6 7 3 4 - - 0.0
22/01:10am 19.2 18.5 11.5 61 4.2 N 6 7 3 4 - - 0.0
22/01:00am 18.8 18.0 11.2 61 4.2 NNW 6 7 3 4 - - 0.0
22/12:50am 18.8 17.9 11.2 61 4.2 NNW 7 7 4 4 - - 0.0
22/12:40am 18.8 18.0 11.6 63 4.0 NNW 7 7 4 4 - - 0.0
22/12:30am 18.8 17.9 10.6 59 4.4 NNW 6 7 3 4 - - 0.0
22/12:20am 18.7 17.9 11.2 61 4.1 NNW 6 7 3 4 - - 0.0
22/12:10am 18.8 18.0 11.1 61 4.2 NNW 6 6 3 3 - - 0.0
22/12:00am 18.6 17.6 10.2 58 4.5 NNW 6 7 3 4 - - 0.0
 
Date/Time
EDT
Temp
°C
App
Temp
°C
Dew
Point
°C
Rel
Hum
%
Delta-T
°C
Wind Press
QNH
hPa
Press
MSL
hPa
Rain since
9am
mm
Dir  Spd
km/h
Gust
km/h
Spd
kts
Gust
kts
21/11:50pm 18.7 18.0 11.4 62 4.0 NNW 6 7 3 4 - - 0.0
21/11:40pm 18.7 17.4 10.1 57 4.6 NNW 7 9 4 5 - - 0.0
21/11:30pm 18.5 17.4 10.8 61 4.2 NNW 7 9 4 5 - - 0.0
21/11:20pm 18.8 18.1 11.4 62 4.1 NNW 6 7 3 4 - - 0.0
21/11:10pm 19.0 18.1 10.7 58 4.5 NNW 6 7 3 4 - - 0.0
21/11:00pm 18.9 18.1 10.9 59 4.4 NNW 6 7 3 4 - - 0.0
21/10:50pm 19.3 18.5 11.2 59 4.4 NNW 6 6 3 3 - - 0.0
21/10:40pm 19.4 18.3 10.5 56 4.8 NNW 7 7 4 4 - - 0.0
21/10:30pm 19.5 18.2 10.1 54 5.1 N 7 9 4 5 - - 0.0
21/10:20pm 19.5 18.5 10.9 57 4.7 N 7 7 4 4 - - 0.0
21/10:10pm 19.6 18.7 11.4 59 4.5 N 7 7 4 4 - - 0.0
21/10:00pm 19.5 18.6 11.2 58 4.6 N 7 7 4 4 - - 0.0
21/09:50pm 19.6 18.5 10.8 56 4.8 N 7 7 4 4 - - 0.0
21/09:40pm 19.6 18.7 11.5 59 4.5 N 7 9 4 5 - - 0.0
21/09:30pm 19.8 19.0 11.8 60 4.5 N 7 9 4 5 - - 0.0
21/09:20pm 19.7 19.3 12.4 62 4.1 NNW 6 7 3 4 - - 0.0
21/09:10pm 20.3 19.8 12.7 61 4.3 NNW 7 7 4 4 - - 0.0
21/09:00pm 20.8 20.3 12.6 59 4.7 N 7 7 4 4 - - 0.0
21/08:50pm 20.6 19.3 9.9 50 5.8 N 7 9 4 5 - - 0.0
21/08:40pm 20.9 20.6 13.4 62 4.3 N 7 7 4 4 - - 0.0
21/08:30pm 21.3 20.6 12.1 55 5.2 N 7 9 4 5 - - 0.0
21/08:20pm 21.2 21.5 13.5 61 4.4 N 4 6 2 3 - - 0.0
21/08:10pm 21.8 22.5 13.3 58 4.9 N 2 4 1 2 - - 0.0
21/08:00pm 21.8 22.5 12.3 54 5.4 CALM 0 2 0 1 - - 0.0
21/07:50pm 22.1 22.8 14.4 61 4.5 NE 4 7 2 4 - - 0.0
21/07:40pm 23.0 23.6 14.3 58 5.1 NE 4 6 2 3 - - 0.0
21/07:30pm 23.4 23.8 13.8 54 5.6 NNE 4 7 2 4 - - 0.0
21/07:20pm 23.7 23.8 13.9 54 5.8 NE 6 7 3 4 - - 0.0
21/07:10pm 24.2 24.5 13.5 51 6.3 NE 4 6 2 3 - - 0.0
21/07:00pm 23.9 24.0 13.8 53 5.9 NE 6 7 3 4 - - 0.0
21/06:50pm 23.8 23.5 13.2 51 6.2 NNE 7 7 4 4 - - 0.0
21/06:40pm 24.1 23.9 13.6 52 6.2 NNE 7 9 4 5 - - 0.0
21/06:30pm 25.0 25.0 13.5 48 6.8 NE 6 6 3 3 - - 0.0
21/06:20pm 25.1 25.0 13.3 48 6.9 NNE 6 9 3 5 - - 0.0
21/06:10pm 25.3 25.5 14.3 50 6.6 NE 6 7 3 4 - - 0.0
21/06:00pm 25.6 26.2 15.3 53 6.2 NE 6 7 3 4 - - 0.0
21/05:50pm 25.8 26.1 14.5 49 6.8 NNE 6 7 3 4 - - 0.0
21/05:40pm 25.7 26.9 16.0 55 5.9 NNE 4 4 2 2 - - 0.0
21/05:30pm 25.6 27.4 17.4 60 5.1 NE 4 6 2 3 - - 0.0
21/05:20pm 25.4 27.1 18.1 64 4.6 NNE 6 7 3 4 - - 0.0
21/05:10pm 26.1 28.4 18.6 63 4.8 ESE 4 6 2 3 - - 0.0
21/05:00pm 26.4 29.2 18.8 63 4.9 WNW 2 6 1 3 - - 0.0
21/04:50pm 26.0 28.3 18.5 63 4.8 NNE 4 6 2 3 - - 0.0
21/04:40pm 25.9 28.3 18.7 64 4.6 NNE 4 6 2 3 - - 0.0
21/04:30pm 25.9 27.8 18.5 63 4.7 NNE 6 7 3 4 - - 0.0
21/04:20pm 26.2 28.1 18.6 63 4.9 NNE 6 7 3 4 - - 0.0
21/04:10pm 26.7 28.9 19.2 63 4.8 NNE 6 7 3 4 - - 0.0
21/04:00pm 27.8 29.8 17.8 54 6.4 NE 4 4 2 2 - - 0.0
21/03:50pm 27.9 30.1 17.4 52 6.6 NE 2 4 1 2 - - 0.0
21/03:40pm 27.7 29.4 17.2 52 6.6 E 4 6 2 3 - - 0.0
21/03:30pm 27.5 29.1 17.0 52 6.6 E 4 6 2 3 - - 0.0
21/03:20pm 27.3 28.4 16.7 52 6.6 NNE 6 7 3 4 - - 0.0
21/03:10pm 27.5 27.9 16.2 50 7.0 NNE 9 13 5 7 - - 0.0
21/03:00pm 28.0 28.9 16.0 48 7.4 NNE 6 7 3 4 - - 0.0
21/02:50pm 27.5 29.3 17.3 53 6.4 NNE 4 6 2 3 - - 0.0
21/02:40pm 26.8 28.4 16.9 54 6.2 NNE 4 7 2 4 - - 0.0
21/02:30pm 26.2 28.2 17.9 60 5.3 SE 4 6 2 3 - - 0.0
21/02:20pm 25.8 27.3 17.6 60 5.2 NE 6 7 3 4 - - 0.0
21/02:10pm 26.1 27.9 18.2 61 5.0 NE 6 9 3 5 - - 0.0
21/02:00pm 26.3 28.5 18.4 61 5.0 NE 4 7 2 4 - - 0.0
21/01:50pm 26.2 27.9 17.2 57 5.6 N 4 6 2 3 - - 0.0
21/01:40pm 25.9 28.1 18.3 63 4.8 SE 4 6 2 3 - - 0.0
21/01:30pm 25.1 27.1 17.8 64 4.6 NE 4 6 2 3 - - 0.0
21/01:20pm 24.1 26.2 19.0 73 3.3 ENE 6 7 3 4 - - 0.0
21/01:10pm 24.5 26.3 18.3 68 3.9 ENE 6 7 3 4 - - 0.0
21/01:00pm 24.6 26.9 18.5 69 3.9 SSE 4 7 2 4 - - 0.0
21/12:50pm 24.9 27.3 18.9 69 3.8 S 4 6 2 3 - - 0.0
21/12:40pm 25.2 27.7 19.1 69 3.9 E 4 6 2 3 - - 0.0
21/12:30pm 25.0 27.2 18.4 66 4.2 E 4 4 2 2 - - 0.0
21/12:20pm 24.0 25.9 18.5 71 3.5 ENE 6 7 3 4 - - 0.0
21/12:10pm 24.1 26.3 18.3 70 3.7 E 4 6 2 3 - - 0.0
21/12:00pm 23.6 25.4 18.2 71 3.4 ENE 6 7 3 4 - - 0.0
21/11:50am 23.6 25.4 18.4 72 3.3 ENE 6 7 3 4 - - 0.0
21/11:40am 23.4 25.6 18.4 73 3.2 ENE 4 6 2 3 - - 0.0
21/11:30am 23.1 25.2 18.2 74 3.1 ESE 4 6 2 3 - - 0.0
21/11:20am 23.4 25.6 18.3 73 3.2 S 4 6 2 3 - - 0.0
21/11:10am 23.7 26.1 17.9 70 3.6 SSW 2 4 1 2 - - 0.0
21/11:00am 23.2 25.6 18.0 72 3.3 S 2 4 1 2 - - 0.0
21/10:50am 22.7 24.7 17.9 74 3.0 ESE 4 6 2 3 - - 0.0
21/10:40am 22.5 24.3 17.5 73 3.1 ENE 4 6 2 3 - - 0.0
21/10:30am 22.4 24.0 16.9 71 3.4 NE 4 7 2 4 - - 0.0
21/10:20am 21.1 22.6 16.7 76 2.7 ENE 4 6 2 3 - - 0.0
21/10:10am 19.6 21.5 16.8 84 1.7 ENE 2 6 1 3 - - 0.0
21/10:00am 19.3 21.1 16.5 84 1.7 ESE 2 4 1 2 - - 0.0
21/09:50am 19.6 21.4 16.4 82 1.9 S 2 4 1 2 - - 0.0
21/09:40am 20.4 21.8 16.5 78 2.4 E 4 6 2 3 - - 0.0
21/09:30am 21.9 23.1 16.0 69 3.6 NE 4 6 2 3 - - 0.0
21/09:20am 21.4 22.0 15.2 68 3.7 NE 6 7 3 4 - - 0.0
21/09:10am 20.3 20.8 15.1 72 3.1 N 6 7 3 4 - - 0.0
21/09:00am 19.5 20.9 14.4 72 3.0 CALM 0 4 0 2 - - 0.0
21/08:50am 19.3 19.7 13.6 69 3.3 ESE 4 6 2 3 - - 0.0
21/08:40am 19.8 19.9 14.0 69 3.4 ENE 6 7 3 4 - - 0.0
21/08:30am 20.5 21.0 15.0 70 3.2 NE 6 6 3 3 - - 0.0
21/08:20am 21.2 22.3 14.7 66 3.8 NE 2 7 1 4 - - 0.0
21/08:10am 21.0 21.8 13.6 62 4.3 NNE 2 4 1 2 - - 0.0
21/08:00am 20.1 20.6 12.8 63 4.1 S 2 4 1 2 - - 0.0
21/07:50am 19.5 20.4 12.9 65 3.7 CALM 0 4 0 2 - - 0.0
21/07:40am 19.3 19.7 12.5 64 3.8 SSW 2 4 1 2 - - 0.0
21/07:30am 18.8 19.1 11.0 60 4.3 CALM 0 0 0 0 - - 0.0
21/07:20am 18.1 17.9 10.5 61 4.1 WNW 2 4 1 2 - - 0.0
21/07:10am 17.5 17.1 11.0 65 3.5 N 4 6 2 3 - - 0.0
21/07:00am 16.9 16.3 8.8 59 4.2 NNW 2 7 1 4 - - 0.0
21/06:50am 16.6 15.8 9.5 63 3.7 NNW 4 4 2 2 - - 0.0
21/06:40am 16.1 15.4 8.6 61 3.8 NNW 2 4 1 2 - - 0.0
21/06:30am 15.9 15.0 9.1 64 3.5 N 4 4 2 2 - - 0.0
21/06:20am 16.0 15.0 8.8 62 3.7 WNW 4 4 2 2 - - 0.0
21/06:10am 15.8 14.8 9.0 64 3.5 NNW 4 6 2 3 - - 0.0
21/06:00am 15.8 14.8 8.9 63 3.5 N 4 6 2 3 - - 0.0
21/05:50am 16.0 15.3 9.9 67 3.2 NNW 4 6 2 3 - - 0.0
21/05:40am 16.0 15.6 9.7 66 3.3 NNW 2 4 1 2 - - 0.0
21/05:30am 16.1 15.8 10.0 67 3.2 NNW 2 4 1 2 - - 0.0
21/05:20am 16.0 15.4 10.3 69 3.0 NW 4 4 2 2 - - 0.0
21/05:10am 15.9 15.2 10.2 69 3.0 N 4 6 2 3 - - 0.0
21/05:00am 15.8 15.4 11.0 73 2.6 NNW 4 4 2 2 - - 0.0
21/04:50am 15.8 15.4 11.2 74 2.5 NNW 4 6 2 3 - - 0.0
21/04:40am 16.0 15.7 11.6 75 2.4 NNW 4 6 2 3 - - 0.0
21/04:30am 16.2 15.9 11.5 73 2.5 NW 4 6 2 3 - - 0.0
21/04:20am 16.1 15.5 11.7 75 2.4 NNW 6 6 3 3 - - 0.0
21/04:10am 16.1 15.4 11.3 73 2.6 NNW 6 6 3 3 - - 0.0
21/04:00am 16.0 15.5 12.0 77 2.2 N 6 7 3 4 - - 0.0
21/03:50am 16.3 16.6 12.1 76 2.3 NW 2 6 1 3 - - 0.0
21/03:40am 16.3 16.3 11.3 72 2.7 NW 2 4 1 2 - - 0.0
21/03:30am 16.4 16.2 11.8 74 2.5 NNW 4 4 2 2 - - 0.0
21/03:20am 16.6 16.4 11.7 73 2.7 NNW 4 4 2 2 - - 0.0
21/03:10am 16.6 16.3 11.3 71 2.9 N 4 6 2 3 - - 0.0
21/03:00am 16.9 16.7 11.8 72 2.8 N 4 4 2 2 - - 0.0
21/02:50am 16.8 16.5 11.4 70 2.9 NNW 4 4 2 2 - - 0.0
21/02:40am 16.9 16.5 11.2 69 3.1 NNW 4 6 2 3 - - 0.0
21/02:30am 16.5 15.7 11.2 71 2.9 NNW 6 6 3 3 - - 0.0
21/02:20am 16.8 16.7 12.0 73 2.6 NNW 4 6 2 3 - - 0.0
21/02:10am 16.8 16.4 12.4 75 2.4 NNW 6 6 3 3 - - 0.0
21/02:00am 17.3 17.2 12.0 71 2.9 NNW 4 6 2 3 - - 0.0
21/01:50am 17.3 16.9 12.3 72 2.8 NNW 6 6 3 3 - - 0.0
21/01:40am 17.9 17.4 12.0 68 3.3 NNW 6 6 3 3 - - 0.0
21/01:30am 17.4 16.7 11.5 68 3.2 NNW 6 7 3 4 - - 0.0
21/01:20am 17.0 16.5 12.2 73 2.7 NNW 6 7 3 4 - - 0.0
21/01:10am 17.3 16.9 12.3 72 2.8 NNW 6 7 3 4 - - 0.0
21/01:00am 17.3 17.0 12.7 74 2.6 NNW 6 6 3 3 - - 0.0
21/12:50am 17.5 17.2 12.8 74 2.6 NNW 6 7 3 4 - - 0.0
21/12:40am 17.4 16.9 11.9 70 3.0 NNW 6 7 3 4 - - 0.0
21/12:30am 17.5 17.3 13.0 75 2.5 NNW 6 7 3 4 - - 0.0
21/12:20am 17.7 17.3 12.3 70 3.0 N 6 7 3 4 - - 0.0
21/12:10am 17.7 17.1 12.3 70 3.0 N 7 9 4 5 - - 0.0
21/12:00am 17.9 17.7 12.9 72 2.8 N 6 7 3 4 - - 0.0
 
Date/Time
EDT
Temp
°C
App
Temp
°C
Dew
Point
°C
Rel
Hum
%
Delta-T
°C
Wind Press
QNH
hPa
Press
MSL
hPa
Rain since
9am
mm
Dir  Spd
km/h
Gust
km/h
Spd
kts
Gust
kts
20/11:50pm 18.2 17.9 12.6 70 3.1 NNW 6 7 3 4 - - 0.0
20/11:40pm 18.3 17.8 12.2 67 3.4 NNW 6 9 3 5 - - 0.0
20/11:30pm 17.8 17.3 12.5 71 3.0 N 7 11 4 6 - - 0.0
20/11:20pm 17.5 17.0 12.6 73 2.7 N 7 9 4 5 - - 0.0
20/11:10pm 17.1 16.8 12.8 76 2.4 NNW 6 7 3 4 - - 0.0
20/11:00pm 17.4 17.3 13.2 76 2.4 NNW 6 7 3 4 - - 0.0
20/10:50pm 17.4 17.0 12.4 72 2.8 NNW 6 7 3 4 - - 0.0
20/10:40pm 17.0 16.8 13.0 77 2.2 NNW 6 7 3 4 - - 0.0
20/10:30pm 17.1 17.1 13.6 80 2.0 NNW 6 7 3 4 - - 0.0
20/10:20pm 17.5 17.6 14.0 80 2.0 NNW 6 7 3 4 - - 0.0
20/10:10pm 17.7 17.9 13.2 75 2.5 NNW 4 6 2 3 - - 0.0
20/10:00pm 17.7 17.9 13.2 75 2.5 N 4 6 2 3 - - 0.0
20/09:50pm 17.8 18.2 14.7 82 1.8 NNW 6 6 3 3 - - 0.0
20/09:40pm 18.2 19.0 14.9 81 1.9 NNW 4 6 2 3 - - 0.0
20/09:30pm 18.5 18.6 13.8 74 2.7 NNW 6 7 3 4 - - 0.0
20/09:20pm 18.6 19.5 15.2 80 2.0 N 4 6 2 3 - - 0.0
20/09:10pm 18.7 19.2 14.9 78 2.2 N 6 7 3 4 - - 0.0
20/09:00pm 18.9 19.6 15.7 82 1.9 N 6 7 3 4 - - 0.0
20/08:50pm 19.0 20.3 16.2 84 1.7 N 4 6 2 3 - - 0.0
20/08:40pm 19.2 20.6 16.4 84 1.7 NNW 4 6 2 3 - - 0.0
20/08:30pm 19.4 20.7 16.1 81 2.0 NNW 4 6 2 3 - - 0.0
20/08:20pm 19.6 20.8 15.9 79 2.2 NNW 4 6 2 3 - - 0.0
20/08:10pm 19.9 21.7 16.5 81 2.1 NW 2 6 1 3 - - 0.0
20/08:00pm 20.1 21.9 16.4 79 2.2 NNW 2 4 1 2 - - 0.0
20/07:50pm 20.6 22.2 16.8 79 2.3 NW 4 4 2 2 - - 0.0
20/07:40pm 21.1 22.9 17.5 80 2.2 N 4 4 2 2 - - 0.0
20/07:30pm 22.0 24.4 17.9 77 2.6 N 2 4 1 2 - - 0.0
20/07:20pm 22.5 25.0 18.2 76 2.7 NE 2 4 1 2 - - 0.0
20/07:10pm 22.8 24.9 18.1 75 2.9 SW 4 4 2 2 - - 0.0
20/07:00pm 23.1 25.7 18.4 75 3.0 SSW 2 4 1 2 - - 0.0
20/06:50pm 23.1 25.4 18.5 75 2.9 S 4 4 2 2 - - 0.0
20/06:40pm 23.6 26.0 18.9 75 3.0 SSE 4 6 2 3 - - 0.0
20/06:30pm 24.8 27.2 18.7 69 3.9 NE 4 6 2 3 - - 0.0
20/06:20pm 26.1 28.8 18.7 63 4.7 NE 2 4 1 2 - - 0.0
20/06:10pm 26.3 27.5 14.8 49 6.9 NE 2 4 1 2 - - 0.0
20/06:00pm 26.1 26.9 13.6 46 7.4 NE 2 4 1 2 - - 0.0
20/05:50pm 26.6 28.8 17.5 57 5.7 NE 2 4 1 2 - - 0.0
20/05:40pm 26.5 28.1 15.9 52 6.5 N 2 4 1 2 - - 0.0
20/05:30pm 26.2 29.1 19.0 64 4.6 NNE 2 4 1 2 - - 0.0
20/05:20pm 26.2 28.3 17.2 57 5.6 ENE 2 4 1 2 - - 0.0
20/05:10pm 26.3 28.5 18.3 61 5.1 NNE 4 4 2 2 - - 0.0
20/05:00pm 26.1 28.3 18.4 62 4.9 NNE 4 4 2 2 - - 0.0
20/04:50pm 26.0 28.4 18.8 64 4.6 NNE 4 6 2 3 - - 0.0
20/04:40pm 25.7 27.9 18.4 64 4.6 NE 4 4 2 2 - - 0.0

Other Formats:

Comma delimited format used in spreadsheet applications
http://www.bom.gov.au/fwo/IDV60801/IDV60801.99900.axf

JavaScript Object Notation format (JSON) in row-major order
http://www.bom.gov.au/fwo/IDV60801/IDV60801.99900.json